Time;durP1;ratioP1;P1;durP2;ratioP2;P2;SDS_P1;SDS_P2;PMS_P1;PMS_P2;Temp;Humidity;BMP_temperature;BMP_pressure;BME280_temperature;BME280_humidity;BME280_pressure;Samples;Min_cycle;Max_cycle;Signal;HPM_P1;HPM_P2
2021/01/13 00:00:28;;;;;;;17.37;13.07;;;;;20.30;100468.00;;;;2063695;28;20763;-53
2021/01/13 00:01:29;;;;;;;17.10;12.23;;;;;20.30;100454.00;;;;2062701;28;20560;-53
2021/01/13 00:02:30;;;;;;;16.67;11.75;;;;;20.30;100453.00;;;;2063792;28;20218;-53
2021/01/13 00:03:30;;;;;;;18.73;12.57;;;;;20.30;100452.00;;;;2063693;28;20207;-53
2021/01/13 00:04:30;;;;;;;16.37;11.30;;;;;20.30;100453.00;;;;2063481;28;20211;-53
2021/01/13 00:05:31;;;;;;;16.37;12.50;;;;;20.30;100452.00;;;;2063391;28;20235;-53
2021/01/13 00:06:32;;;;;;;14.93;11.30;;;;;20.30;100451.00;;;;2063638;28;20298;-53
2021/01/13 00:07:33;;;;;;;16.38;11.88;;;;;20.30;100457.00;;;;2062532;28;20264;-53
2021/01/13 00:08:33;;;;;;;13.37;11.20;;;;;20.30;100451.00;;;;2063152;28;20288;-53
2021/01/13 00:09:33;;;;;;;15.23;11.07;;;;;20.30;100450.00;;;;2063855;28;20239;-53
2021/01/13 00:10:34;;;;;;;13.50;10.73;;;;;20.30;100446.00;;;;2063789;28;20226;-53
2021/01/13 00:11:35;;;;;;;16.13;11.50;;;;;20.30;100449.00;;;;2063396;28;20226;-53
2021/01/13 00:12:36;;;;;;;16.70;10.85;;;;;20.20;100450.00;;;;2063508;28;20225;-53
2021/01/13 00:13:37;;;;;;;12.30;9.40;;;;;20.20;100449.00;;;;2063574;28;20243;-53
2021/01/13 00:14:37;;;;;;;13.43;10.52;;;;;20.30;100451.00;;;;2052469;28;20247;-54
2021/01/13 00:15:38;;;;;;;13.43;9.83;;;;;20.10;100448.00;;;;2054594;28;20223;-53
2021/01/13 00:16:38;;;;;;;11.73;9.77;;;;;20.30;100451.00;;;;2063375;28;20268;-53
2021/01/13 00:17:39;;;;;;;13.80;9.97;;;;;20.20;100454.00;;;;2063470;28;20297;-53
2021/01/13 00:18:39;;;;;;;13.77;9.90;;;;;20.20;100451.00;;;;2063547;28;20210;-53
2021/01/13 00:19:39;;;;;;;15.40;9.17;;;;;20.20;100449.00;;;;2060470;28;20214;-53
2021/01/13 00:20:40;;;;;;;12.63;9.53;;;;;20.20;100453.00;;;;2062754;28;20708;-53
2021/01/13 00:21:40;;;;;;;13.80;10.10;;;;;20.20;100453.00;;;;2062798;28;20834;-53
2021/01/13 00:22:41;;;;;;;13.53;9.63;;;;;20.20;100452.00;;;;2062803;28;20708;-53
2021/01/13 00:23:51;;;;;;;11.30;8.90;;;;;20.20;100449.00;;;;2077676;28;20244;-53
2021/01/13 00:24:52;;;;;;;13.02;9.23;;;;;20.20;100452.00;;;;2076364;28;20224;-53
2021/01/13 00:25:52;;;;;;;10.55;8.00;;;;;20.20;100463.00;;;;2063378;28;20312;-53
2021/01/13 00:26:59;;;;;;;13.00;8.97;;;;;20.20;100449.00;;;;2057908;28;20217;-53
2021/01/13 00:28:01;;;;;;;11.93;9.05;;;;;20.20;100448.00;;;;2063437;28;20224;-53
2021/01/13 00:29:01;;;;;;;11.68;8.65;;;;;20.20;100452.00;;;;2063594;28;20230;-53
2021/01/13 00:30:02;;;;;;;12.60;8.83;;;;;20.20;100450.00;;;;2075128;28;20596;-53
2021/01/13 00:31:02;;;;;;;10.53;8.13;;;;;20.20;100451.00;;;;2078484;28;20270;-53
2021/01/13 00:32:04;;;;;;;10.43;7.30;;;;;20.20;100452.00;;;;2064328;28;20225;-53
2021/01/13 00:33:08;;;;;;;11.05;8.05;;;;;20.20;100446.00;;;;2063241;28;20223;-53
2021/01/13 00:34:11;;;;;;;11.88;8.25;;;;;20.20;100452.00;;;;2062496;28;20777;-53
2021/01/13 00:35:12;;;;;;;10.27;8.13;;;;;20.20;100454.00;;;;2061702;28;20218;-53
2021/01/13 00:36:18;;;;;;;10.68;7.85;;;;;20.20;100452.00;;;;2063291;28;20216;-53
2021/01/13 00:37:19;;;;;;;8.95;7.35;;;;;20.20;100446.00;;;;2057750;28;20569;-53
2021/01/13 00:38:19;;;;;;;9.63;7.73;;;;;20.20;100450.00;;;;2062808;28;20350;-53
2021/01/13 00:39:19;;;;;;;9.60;7.50;;;;;20.10;100453.00;;;;2063195;28;20219;-53
2021/01/13 00:40:20;;;;;;;11.47;8.30;;;;;20.20;100452.00;;;;2063421;28;20221;-53
2021/01/13 00:41:20;;;;;;;11.70;8.13;;;;;20.10;100452.00;;;;2063512;28;20936;-53
2021/01/13 00:42:21;;;;;;;13.20;9.13;;;;;20.00;100456.00;;;;2063168;28;20217;-53
2021/01/13 00:43:21;;;;;;;11.40;8.87;;;;;20.00;100457.00;;;;2063705;28;20225;-54
2021/01/13 00:44:22;;;;;;;8.90;7.30;;;;;20.00;100462.00;;;;2063377;28;20354;-53
2021/01/13 00:45:22;;;;;;;11.43;8.73;;;;;20.10;100459.00;;;;2062830;28;20221;-52
2021/01/13 00:46:22;;;;;;;10.20;7.20;;;;;20.10;100464.00;;;;2062963;28;20213;-52
2021/01/13 00:47:23;;;;;;;11.00;7.20;;;;;20.20;100463.00;;;;2058550;28;20277;-52
2021/01/13 00:48:24;;;;;;;10.87;7.63;;;;;20.10;100456.00;;;;2060650;28;20569;-52
2021/01/13 00:49:25;;;;;;;11.85;7.40;;;;;20.10;100460.00;;;;2063492;28;20229;-54
2021/01/13 00:50:25;;;;;;;11.83;7.23;;;;;20.10;100456.00;;;;2063535;28;20206;-53
2021/01/13 00:51:41;;;;;;;14.97;7.30;;;;;20.10;100452.00;;;;2063405;28;20218;-53
2021/01/13 00:52:48;;;;;;;13.77;6.95;;;;;20.20;100455.00;;;;2063527;28;20746;-53
2021/01/13 00:53:48;;;;;;;10.45;6.72;;;;;20.10;100451.00;;;;2061985;28;20214;-53
2021/01/13 00:54:48;;;;;;;9.00;6.50;;;;;20.10;100450.00;;;;2062896;28;20217;-53
2021/01/13 00:55:49;;;;;;;13.80;7.60;;;;;20.10;100455.00;;;;2063401;28;20226;-53
2021/01/13 00:56:50;;;;;;;9.60;5.90;;;;;20.10;100450.00;;;;2063381;28;20305;-53
2021/01/13 00:57:50;;;;;;;11.10;6.60;;;;;20.10;100452.00;;;;2063333;28;20679;-53
2021/01/13 00:58:51;;;;;;;11.40;6.97;;;;;20.10;100452.00;;;;2062929;28;20222;-53
2021/01/13 00:59:51;;;;;;;10.10;6.60;;;;;20.10;100451.00;;;;2063409;28;20213;-53
2021/01/13 01:00:51;;;;;;;8.50;6.40;;;;;20.10;100465.00;;;;2063309;28;20222;-53
2021/01/13 01:01:52;;;;;;;10.77;6.27;;;;;20.10;100461.00;;;;2063302;28;20693;-53
2021/01/13 01:02:52;;;;;;;9.27;6.13;;;;;20.10;100463.00;;;;2063181;28;20690;-53
2021/01/13 01:03:53;;;;;;;13.10;6.37;;;;;20.10;100456.00;;;;2062281;28;20686;-53
2021/01/13 01:04:54;;;;;;;13.70;6.72;;;;;20.10;100456.00;;;;2062795;28;20272;-53
2021/01/13 01:05:54;;;;;;;10.90;6.47;;;;;20.10;100462.00;;;;2063411;28;20221;-53
2021/01/13 01:06:54;;;;;;;9.07;5.97;;;;;20.10;100469.00;;;;2063278;28;20297;-53
2021/01/13 01:07:55;;;;;;;7.07;5.53;;;;;20.10;100465.00;;;;2063236;28;20206;-53
2021/01/13 01:08:55;;;;;;;10.70;5.50;;;;;20.10;100452.00;;;;2063191;28;20217;-53
2021/01/13 01:09:55;;;;;;;9.33;5.40;;;;;20.10;100460.00;;;;2063475;28;20300;-53
2021/01/13 01:10:56;;;;;;;9.13;5.57;;;;;20.00;100459.00;;;;2063359;28;20206;-53
2021/01/13 01:11:56;;;;;;;6.90;5.00;;;;;20.00;100460.00;;;;2063217;28;20218;-53
2021/01/13 01:12:57;;;;;;;9.97;5.50;;;;;20.00;100459.00;;;;2063303;28;20304;-53
2021/01/13 01:13:57;;;;;;;6.63;4.87;;;;;20.00;100465.00;;;;2062506;28;20707;-53
2021/01/13 01:14:58;;;;;;;7.37;5.33;;;;;20.00;100463.00;;;;2062324;28;20739;-53
2021/01/13 01:15:58;;;;;;;8.80;5.40;;;;;20.10;100462.00;;;;2062998;28;20214;-53
2021/01/13 01:16:58;;;;;;;7.80;4.83;;;;;20.00;100459.00;;;;2063024;28;20344;-53
2021/01/13 01:17:59;;;;;;;7.97;6.10;;;;;20.00;100466.00;;;;2063155;28;20687;-53
2021/01/13 01:18:59;;;;;;;8.00;5.33;;;;;20.00;100460.00;;;;2062965;28;21096;-53
2021/01/13 01:19:59;;;;;;;8.83;4.97;;;;;20.00;100470.00;;;;2062885;28;20575;-53
2021/01/13 01:21:00;;;;;;;7.93;5.13;;;;;20.00;100472.00;;;;2063096;28;20222;-53
2021/01/13 01:22:02;;;;;;;8.63;5.30;;;;;20.00;100470.00;;;;2063143;28;20596;-53
2021/01/13 01:23:02;;;;;;;7.72;4.40;;;;;20.00;100465.00;;;;2063339;28;20275;-53
2021/01/13 01:24:03;;;;;;;7.77;5.10;;;;;20.00;100464.00;;;;2062502;28;20296;-53
2021/01/13 01:25:04;;;;;;;6.57;4.93;;;;;20.00;100461.00;;;;2061555;28;20225;-53
2021/01/13 01:26:05;;;;;;;8.63;5.07;;;;;20.00;100468.00;;;;2062425;28;20631;-53
2021/01/13 01:27:05;;;;;;;6.80;5.50;;;;;20.00;100462.00;;;;2062585;28;20220;-53
2021/01/13 01:28:05;;;;;;;7.30;5.07;;;;;20.00;100464.00;;;;2062445;28;20528;-53
2021/01/13 01:29:06;;;;;;;7.20;4.43;;;;;20.00;100464.00;;;;2062375;28;20232;-53
2021/01/13 01:30:07;;;;;;;6.77;4.90;;;;;20.00;100461.00;;;;2062147;28;20217;-53
2021/01/13 01:31:07;;;;;;;8.32;5.30;;;;;20.00;100467.00;;;;2062169;28;20207;-53
2021/01/13 01:32:08;;;;;;;6.50;4.43;;;;;20.00;100466.00;;;;2062571;28;20220;-53
2021/01/13 01:33:08;;;;;;;7.80;4.87;;;;;20.00;100470.00;;;;2062688;28;20232;-53
2021/01/13 01:34:08;;;;;;;6.33;5.20;;;;;19.90;100463.00;;;;2062360;28;20329;-53
2021/01/13 01:35:09;;;;;;;7.67;4.80;;;;;19.90;100460.00;;;;2061803;28;20225;-53
2021/01/13 01:36:09;;;;;;;5.03;4.20;;;;;19.90;100463.00;;;;2062518;28;20216;-53
2021/01/13 01:37:09;;;;;;;7.70;4.60;;;;;19.90;100468.00;;;;2062222;28;20225;-53
2021/01/13 01:38:10;;;;;;;8.80;4.70;;;;;19.90;100469.00;;;;2062388;28;20311;-53
2021/01/13 01:39:10;;;;;;;4.50;3.90;;;;;19.90;100469.00;;;;2063115;28;20974;-53
2021/01/13 01:40:12;;;;;;;7.10;4.50;;;;;19.90;100472.00;;;;2063078;28;20737;-53
2021/01/13 01:41:16;;;;;;;7.20;4.45;;;;;19.90;100476.00;;;;2062670;28;20261;-53
2021/01/13 01:42:16;;;;;;;8.30;4.35;;;;;19.90;100471.00;;;;2062506;28;20233;-53
2021/01/13 01:43:17;;;;;;;8.77;5.00;;;;;19.90;100472.00;;;;2062934;28;20218;-53
2021/01/13 01:44:17;;;;;;;6.40;4.50;;;;;19.90;100468.00;;;;2062575;28;20608;-53
2021/01/13 01:45:27;;;;;;;5.50;4.17;;;;;19.90;100472.00;;;;2062246;28;20248;-53
2021/01/13 01:46:29;;;;;;;6.13;4.15;;;;;19.90;100468.00;;;;2062462;28;20213;-53
2021/01/13 01:48:10;;;;;;;5.72;4.20;;;;;19.90;100476.00;;;;2062156;28;20213;-53
2021/01/13 01:49:12;;;;;;;7.93;4.28;;;;;19.90;100481.00;;;;2067452;28;20217;-53
2021/01/13 01:50:13;;;;;;;5.07;3.67;;;;;19.90;100472.00;;;;2068059;28;20226;-53
2021/01/13 01:51:37;;;;;;;6.40;4.50;;;;;19.90;100485.00;;;;2075915;28;20227;-53
2021/01/13 01:52:37;;;;;;;7.05;4.38;;;;;19.90;100487.00;;;;2068102;28;20270;-53
2021/01/13 01:53:37;;;;;;;6.50;4.27;;;;;19.90;100483.00;;;;2062369;28;20208;-53
2021/01/13 01:54:40;;;;;;;7.80;4.13;;;;;19.90;100495.00;;;;2061399;28;20237;-53
2021/01/13 01:55:48;;;;;;;6.22;4.15;;;;;19.90;100480.00;;;;2062096;28;20214;-53
2021/01/13 01:56:48;;;;;;;7.40;4.20;;;;;19.90;100477.00;;;;2062154;28;20225;-53
2021/01/13 01:57:49;;;;;;;6.13;3.97;;;;;19.80;100483.00;;;;2061448;28;20224;-53
2021/01/13 01:58:59;;;;;;;6.93;4.10;;;;;19.80;100476.00;;;;2054128;28;20219;-53
2021/01/13 02:00:02;;;;;;;5.57;4.20;;;;;19.90;100483.00;;;;2055294;28;20274;-53
2021/01/13 02:01:04;;;;;;;6.70;3.80;;;;;19.80;100481.00;;;;2062132;28;20238;-53
2021/01/13 02:02:04;;;;;;;6.72;4.30;;;;;19.80;100476.00;;;;2062668;28;20813;-53
2021/01/13 02:03:11;;;;;;;5.67;3.93;;;;;19.90;100481.00;;;;2064888;28;20444;-53
2021/01/13 02:04:27;;;;;;;5.53;3.70;;;;;19.80;100482.00;;;;2062629;28;20651;-53
2021/01/13 02:05:27;;;;;;;4.80;3.50;;;;;19.90;100482.00;;;;2049304;28;20266;-55
2021/01/13 02:06:31;;;;;;;5.23;3.50;;;;;19.80;100485.00;;;;2061890;28;20637;-53
2021/01/13 02:07:32;;;;;;;5.80;3.85;;;;;19.80;100485.00;;;;2061668;28;20348;-53
2021/01/13 02:08:37;;;;;;;5.13;3.42;;;;;19.80;100480.00;;;;2070158;28;20243;-53
2021/01/13 02:09:38;;;;;;;4.60;3.67;;;;;19.80;100482.00;;;;2070559;28;20216;-53
2021/01/13 02:10:41;;;;;;;5.03;3.60;;;;;19.80;100479.00;;;;2070737;28;20212;-53
2021/01/13 02:11:44;;;;;;;5.60;3.75;;;;;19.80;100479.00;;;;2070413;28;20209;-53
2021/01/13 02:12:50;;;;;;;7.25;3.85;;;;;19.80;100481.00;;;;2062411;28;20238;-53
2021/01/13 02:13:51;;;;;;;5.82;4.35;;;;;19.80;100486.00;;;;2070177;28;20216;-53
2021/01/13 02:14:51;;;;;;;4.67;3.50;;;;;19.80;100486.00;;;;2069717;28;20224;-53
2021/01/13 02:15:51;;;;;;;4.93;3.50;;;;;19.80;100490.00;;;;2070690;28;20305;-53
2021/01/13 02:16:53;;;;;;;5.10;3.50;;;;;19.80;100483.00;;;;2070656;28;20331;-53
2021/01/13 02:17:53;;;;;;;4.75;3.85;;;;;19.80;100482.00;;;;2070825;28;20221;-53
2021/01/13 02:18:54;;;;;;;5.60;3.70;;;;;19.80;100476.00;;;;2061935;28;20260;-53
2021/01/13 02:20:03;;;;;;;4.17;3.57;;;;;19.80;100479.00;;;;2046028;28;20803;-53
2021/01/13 02:21:03;;;;;;;5.30;3.53;;;;;19.80;100481.00;;;;2054648;28;20631;-53
2021/01/13 02:22:04;;;;;;;5.97;3.60;;;;;19.80;100477.00;;;;2062565;28;20222;-53
2021/01/13 02:23:08;;;;;;;5.87;3.90;;;;;19.80;100483.00;;;;2064005;28;20216;-53
2021/01/13 02:24:08;;;;;;;5.28;3.10;;;;;19.80;100477.00;;;;2070173;28;20226;-53
2021/01/13 02:25:12;;;;;;;4.30;3.30;;;;;19.80;100487.00;;;;2064370;28;20595;-53
2021/01/13 02:26:34;;;;;;;5.38;3.50;;;;;19.70;100487.00;;;;2062626;28;20785;-53
2021/01/13 02:27:54;;;;;;;5.95;3.30;;;;;19.80;100492.00;;;;2062411;28;20213;-53
2021/01/13 02:29:15;;;;;;;4.55;2.90;;;;;19.70;100488.00;;;;2062930;28;20232;-53
2021/01/13 02:30:16;;;;;;;6.20;3.10;;;;;19.80;100484.00;;;;2062561;28;20373;-53
2021/01/13 02:31:29;;;;;;;5.37;3.20;;;;;19.80;100486.00;;;;2061969;28;20852;-53
2021/01/13 02:32:31;;;;;;;5.35;3.42;;;;;19.70;100487.00;;;;2062385;28;20212;-53
2021/01/13 02:33:52;;;;;;;6.13;3.35;;;;;19.70;100483.00;;;;2070067;28;20224;-53
2021/01/13 02:35:13;;;;;;;5.97;3.08;;;;;19.70;100484.00;;;;2054099;28;20306;-53
2021/01/13 02:37:04;;;;;;;3.50;2.70;;;;;19.70;100482.00;;;;2052265;28;20221;-53
2021/01/13 02:38:09;;;;;;;4.07;2.53;;;;;19.70;100483.00;;;;2064229;28;20221;-53
2021/01/13 02:39:09;;;;;;;5.28;3.05;;;;;19.70;100484.00;;;;2070671;28;20205;-53
2021/01/13 02:40:16;;;;;;;3.63;2.73;;;;;19.70;100486.00;;;;2069964;28;20288;-53
2021/01/13 02:41:17;;;;;;;5.13;3.03;;;;;19.70;100486.00;;;;2069867;28;20236;-53
2021/01/13 02:42:22;;;;;;;5.57;3.00;;;;;19.70;100489.00;;;;2070564;28;20313;-53
2021/01/13 02:43:22;;;;;;;5.50;3.22;;;;;19.70;100482.00;;;;2070585;28;20299;-54
2021/01/13 02:44:27;;;;;;;4.00;2.97;;;;;19.70;100487.00;;;;2064688;28;20219;-53
2021/01/13 02:45:29;;;;;;;4.10;2.80;;;;;19.70;100481.00;;;;2061197;28;20226;-53
2021/01/13 02:46:53;;;;;;;3.25;2.85;;;;;19.70;100483.00;;;;2054239;28;20232;-53
2021/01/13 02:47:56;;;;;;;5.20;3.30;;;;;19.70;100485.00;;;;2054794;28;20222;-53
2021/01/13 02:48:57;;;;;;;3.45;2.60;;;;;19.70;100479.00;;;;2062572;28;20646;-53
2021/01/13 02:49:57;;;;;;;6.60;3.30;;;;;19.70;100475.00;;;;2062501;28;20315;-53
2021/01/13 02:50:59;;;;;;;5.57;3.13;;;;;19.70;100472.00;;;;2069319;28;20303;-53
2021/01/13 02:52:00;;;;;;;4.75;3.00;;;;;19.60;100485.00;;;;2069921;28;20217;-53
2021/01/13 02:53:07;;;;;;;5.78;3.17;;;;;19.60;100486.00;;;;2068229;28;20210;-54
2021/01/13 02:54:12;;;;;;;5.95;2.85;;;;;19.60;100482.00;;;;2069973;28;20215;-53
2021/01/13 02:55:12;;;;;;;4.78;3.50;;;;;19.60;100485.00;;;;2069854;28;20291;-53
2021/01/13 02:56:18;;;;;;;4.57;2.90;;;;;19.70;100486.00;;;;2061870;28;20217;-53
2021/01/13 02:57:19;;;;;;;3.97;3.17;;;;;19.60;100481.00;;;;2062197;28;20221;-53
2021/01/13 02:58:31;;;;;;;6.22;3.13;;;;;19.70;100479.00;;;;2069892;28;20244;-53
2021/01/13 02:59:34;;;;;;;3.95;3.08;;;;;19.60;100483.00;;;;2064744;28;20579;-55
2021/01/13 03:00:35;;;;;;;5.45;2.95;;;;;19.60;100474.00;;;;2067580;28;20229;-53
2021/01/13 03:01:39;;;;;;;6.50;3.60;;;;;19.70;100480.00;;;;2069927;28;20220;-53
2021/01/13 03:02:40;;;;;;;5.40;2.78;;;;;19.70;100475.00;;;;2069580;28;20292;-53
2021/01/13 03:03:40;;;;;;;5.73;3.30;;;;;19.60;100476.00;;;;2061150;28;20253;-53
2021/01/13 03:04:41;;;;;;;4.80;3.10;;;;;19.60;100477.00;;;;2060321;28;20601;-53
2021/01/13 03:05:42;;;;;;;5.63;3.40;;;;;19.60;100479.00;;;;2069104;28;20578;-53
2021/01/13 03:06:44;;;;;;;5.82;2.70;;;;;19.60;100477.00;;;;2070011;28;20229;-53
2021/01/13 03:07:45;;;;;;;4.78;3.58;;;;;19.60;100480.00;;;;2070068;28;20214;-53
2021/01/13 03:09:01;;;;;;;4.40;2.65;;;;;19.60;100464.00;;;;2069615;28;20242;-53
2021/01/13 03:10:08;;;;;;;4.75;2.88;;;;;19.60;100486.00;;;;2069390;28;20293;-53
2021/01/13 03:11:09;;;;;;;4.50;2.78;;;;;19.60;100489.00;;;;2065265;28;20220;-53
2021/01/13 03:12:27;;;;;;;5.40;3.20;;;;;19.60;100485.00;;;;2058744;28;20226;-53
2021/01/13 03:13:31;;;;;;;6.05;2.65;;;;;19.60;100487.00;;;;2057350;28;20214;-53
2021/01/13 03:14:31;;;;;;;5.55;2.75;;;;;19.60;100482.00;;;;2059783;28;20207;-53
2021/01/13 03:15:32;;;;;;;5.17;2.90;;;;;19.60;100486.00;;;;2045603;28;20303;-53
2021/01/13 03:16:34;;;;;;;4.07;2.87;;;;;19.60;100484.00;;;;2051875;28;20232;-53
2021/01/13 03:17:34;;;;;;;4.78;2.90;;;;;19.60;100485.00;;;;2051822;28;20535;-55
2021/01/13 03:18:41;;;;;;;3.57;2.93;;;;;19.60;100490.00;;;;2061900;28;20210;-54
2021/01/13 03:20:01;;;;;;;4.10;3.22;;;;;19.60;100491.00;;;;2069710;28;20688;-53
2021/01/13 03:21:12;;;;;;;3.22;2.90;;;;;19.60;100500.00;;;;2070135;28;20226;-53
2021/01/13 03:22:17;;;;;;;5.35;2.95;;;;;19.60;100502.00;;;;2060994;28;20230;-53
2021/01/13 03:23:28;;;;;;;4.50;2.63;;;;;19.60;100510.00;;;;2061949;28;20224;-53
2021/01/13 03:24:35;;;;;;;3.70;2.75;;;;;19.60;100510.00;;;;2060834;28;20282;-53
2021/01/13 03:25:37;;;;;;;5.03;2.90;;;;;19.50;100503.00;;;;2054732;28;20226;-54
2021/01/13 03:26:39;;;;;;;5.30;3.00;;;;;19.60;100504.00;;;;2069162;28;20236;-53
2021/01/13 03:27:42;;;;;;;3.20;2.22;;;;;19.60;100501.00;;;;2070514;28;20616;-53
2021/01/13 03:28:42;;;;;;;5.80;2.95;;;;;19.60;100503.00;;;;2062677;28;20224;-53
2021/01/13 03:29:45;;;;;;;4.87;2.90;;;;;19.60;100507.00;;;;2070888;28;20767;-53
2021/01/13 03:30:50;;;;;;;4.00;2.92;;;;;19.60;100495.00;;;;2071037;28;20233;-53
2021/01/13 03:32:04;;;;;;;5.53;2.95;;;;;19.60;100492.00;;;;2064317;28;20225;-53
2021/01/13 03:33:17;;;;;;;4.43;2.58;;;;;19.50;100499.00;;;;2077631;28;20281;-53
2021/01/13 03:34:26;;;;;;;3.50;2.70;;;;;19.50;100499.00;;;;2071838;28;20220;-53
2021/01/13 03:35:45;;;;;;;3.50;2.58;;;;;19.50;100504.00;;;;2070653;28;20220;-53
2021/01/13 03:36:52;;;;;;;5.18;2.97;;;;;19.50;100512.00;;;;2070941;28;20270;-53
2021/01/13 03:37:59;;;;;;;4.07;2.80;;;;;19.50;100506.00;;;;2071583;28;20220;-53
2021/01/13 03:39:07;;;;;;;3.80;2.40;;;;;19.60;100498.00;;;;2071795;28;20225;-54
2021/01/13 03:40:08;;;;;;;4.68;2.60;;;;;19.50;100501.00;;;;2071725;28;20788;-53
2021/01/13 03:41:08;;;;;;;5.13;2.47;;;;;19.60;100496.00;;;;2071794;28;20323;-53
2021/01/13 03:42:15;;;;;;;3.90;2.83;;;;;19.50;100503.00;;;;2072051;28;20259;-53
2021/01/13 03:43:20;;;;;;;3.83;2.53;;;;;19.50;100509.00;;;;2071804;28;20223;-53
2021/01/13 03:44:31;;;;;;;3.78;2.67;;;;;19.50;100508.00;;;;2068342;28;20208;-53
2021/01/13 03:45:32;;;;;;;4.28;2.70;;;;;19.50;100513.00;;;;2071271;28;20712;-53
2021/01/13 03:46:33;;;;;;;2.92;2.50;;;;;19.50;100503.00;;;;2070169;28;20219;-53
2021/01/13 03:47:39;;;;;;;5.10;2.60;;;;;19.50;100507.00;;;;2071645;28;20624;-53
2021/01/13 03:48:43;;;;;;;4.00;2.70;;;;;19.50;100505.00;;;;2071460;28;20218;-52
2021/01/13 03:50:07;;;;;;;4.45;2.90;;;;;19.50;100507.00;;;;2071728;28;20216;-55
2021/01/13 03:51:30;;;;;;;3.90;2.83;;;;;19.50;100507.00;;;;2071542;28;20695;-54
2021/01/13 03:52:35;;;;;;;4.03;2.67;;;;;19.50;100511.00;;;;2063120;28;20213;-53
2021/01/13 03:53:39;;;;;;;5.38;2.80;;;;;19.50;100503.00;;;;2066017;28;20225;-53
2021/01/13 03:54:39;;;;;;;4.00;2.55;;;;;19.50;100506.00;;;;2070949;28;20587;-53
2021/01/13 03:55:41;;;;;;;4.60;2.70;;;;;19.50;100509.00;;;;2062940;28;20306;-53
2021/01/13 03:56:48;;;;;;;4.13;3.05;;;;;19.50;100508.00;;;;2062907;28;20745;-53
2021/01/13 03:57:58;;;;;;;3.65;2.22;;;;;19.50;100503.00;;;;2062849;28;20300;-53
2021/01/13 03:58:58;;;;;;;3.97;2.92;;;;;19.50;100509.00;;;;2057505;28;23257;-53
2021/01/13 04:00:07;;;;;;;5.70;2.90;;;;;19.50;100513.00;;;;2063014;28;20232;-53
2021/01/13 04:01:22;;;;;;;4.35;2.53;;;;;19.50;100508.00;;;;2070765;28;20224;-53
2021/01/13 04:02:28;;;;;;;4.97;2.45;;;;;19.50;100504.00;;;;2071678;28;20289;-53
2021/01/13 04:03:35;;;;;;;3.50;2.50;;;;;19.50;100507.00;;;;2071538;28;20260;-53
2021/01/13 04:04:57;;;;;;;5.00;2.40;;;;;19.50;100505.00;;;;2070388;28;20288;-53
2021/01/13 04:06:00;;;;;;;5.68;2.40;;;;;19.40;100502.00;;;;2059266;28;20238;-53
2021/01/13 04:07:01;;;;;;;3.85;2.15;;;;;19.40;100502.00;;;;2062962;28;20228;-53
2021/01/13 04:08:01;;;;;;;3.63;2.57;;;;;19.40;100504.00;;;;2063482;28;20607;-53
2021/01/13 04:09:02;;;;;;;6.90;2.90;;;;;19.40;100496.00;;;;2062700;28;20449;-53
2021/01/13 04:10:12;;;;;;;3.93;2.67;;;;;19.50;100500.00;;;;2054791;28;20224;-53
2021/01/13 04:11:16;;;;;;;4.13;2.35;;;;;19.50;100504.00;;;;2055681;28;20226;-54
2021/01/13 04:12:16;;;;;;;4.38;2.60;;;;;19.40;100492.00;;;;2064169;28;20221;-53
2021/01/13 04:13:32;;;;;;;3.40;2.60;;;;;19.40;100498.00;;;;2063581;28;20264;-53
2021/01/13 04:14:51;;;;;;;4.60;2.78;;;;;19.40;100502.00;;;;2068480;28;20211;-53
2021/01/13 04:15:51;;;;;;;4.80;2.75;;;;;19.40;100501.00;;;;2062238;28;20248;-53
2021/01/13 04:16:52;;;;;;;4.80;2.67;;;;;19.40;100511.00;;;;2062557;28;20603;-53
2021/01/13 04:17:52;;;;;;;2.90;2.40;;;;;19.40;100501.00;;;;2066098;28;20698;-53
2021/01/13 04:18:53;;;;;;;3.80;2.40;;;;;19.40;100506.00;;;;2071080;28;20742;-53
2021/01/13 04:19:53;;;;;;;2.73;2.23;;;;;19.40;100497.00;;;;2065772;28;20301;-53
2021/01/13 04:20:54;;;;;;;4.40;2.50;;;;;19.40;100497.00;;;;2063180;28;20238;-53
2021/01/13 04:21:55;;;;;;;4.10;2.17;;;;;19.40;100508.00;;;;2063568;28;20213;-53
2021/01/13 04:22:55;;;;;;;6.93;2.77;;;;;19.40;100506.00;;;;2063066;28;20713;-53
2021/01/13 04:23:56;;;;;;;4.80;2.33;;;;;19.40;100503.00;;;;2062613;28;20220;-53
2021/01/13 04:24:57;;;;;;;4.63;2.70;;;;;19.40;100503.00;;;;2062998;28;20223;-52
2021/01/13 04:25:58;;;;;;;4.50;2.37;;;;;19.40;100501.00;;;;2063244;28;20445;-53
2021/01/13 04:26:58;;;;;;;4.60;2.90;;;;;19.40;100500.00;;;;2063529;28;20299;-53
2021/01/13 04:27:59;;;;;;;4.13;2.37;;;;;19.40;100487.00;;;;2063410;28;20462;-53
2021/01/13 04:29:00;;;;;;;4.47;2.60;;;;;19.40;100492.00;;;;2063485;28;20339;-53
2021/01/13 04:30:01;;;;;;;4.50;2.73;;;;;19.40;100489.00;;;;2063188;28;20521;-53
2021/01/13 04:31:02;;;;;;;4.22;2.67;;;;;19.40;100498.00;;;;2062909;28;20337;-53
2021/01/13 04:32:03;;;;;;;4.27;3.10;;;;;19.40;100493.00;;;;2062784;28;20737;-53
2021/01/13 04:33:04;;;;;;;3.58;2.30;;;;;19.40;100489.00;;;;2062813;28;20760;-53
2021/01/13 04:34:05;;;;;;;3.70;2.47;;;;;19.40;100494.00;;;;2062902;28;20222;-53
2021/01/13 04:35:06;;;;;;;3.47;2.60;;;;;19.40;100504.00;;;;2062724;28;20468;-53
2021/01/13 04:36:06;;;;;;;6.10;3.17;;;;;19.40;100511.00;;;;2063303;28;20226;-53
2021/01/13 04:37:08;;;;;;;5.00;2.90;;;;;19.20;100492.00;;;;2063292;28;20667;-53
2021/01/13 04:38:09;;;;;;;4.85;2.90;;;;;19.30;100501.00;;;;2063158;28;20467;-53
2021/01/13 04:39:09;;;;;;;4.00;2.58;;;;;19.40;100497.00;;;;2063509;28;20226;-53
2021/01/13 04:40:24;;;;;;;3.63;2.60;;;;;19.30;100497.00;;;;2078076;28;20737;-53
2021/01/13 04:41:25;;;;;;;5.45;3.28;;;;;19.30;100497.00;;;;2068857;28;20216;-53
2021/01/13 04:42:29;;;;;;;4.13;2.60;;;;;19.30;100493.00;;;;2062769;28;20222;-53
2021/01/13 04:43:32;;;;;;;4.90;2.50;;;;;19.30;100488.00;;;;2061094;28;20256;-53
2021/01/13 04:44:43;;;;;;;4.22;2.40;;;;;19.40;100487.00;;;;2050351;28;20217;-53
2021/01/13 04:45:45;;;;;;;4.32;2.58;;;;;19.30;100482.00;;;;2055819;28;20217;-55
2021/01/13 04:46:45;;;;;;;3.17;2.70;;;;;19.40;100481.00;;;;2063315;28;20221;-54
2021/01/13 04:47:52;;;;;;;5.40;2.90;;;;;19.30;100475.00;;;;2046675;28;20305;-53
2021/01/13 04:49:07;;;;;;;4.65;2.90;;;;;19.30;100482.00;;;;2049097;28;20222;-53
2021/01/13 04:50:10;;;;;;;3.70;2.50;;;;;19.30;100484.00;;;;2066823;28;20223;-53
2021/01/13 04:51:10;;;;;;;3.45;2.55;;;;;19.30;100476.00;;;;2069614;28;20213;-54
2021/01/13 04:52:17;;;;;;;3.10;2.60;;;;;19.30;100481.00;;;;2062147;28;20693;-53
2021/01/13 04:53:19;;;;;;;2.92;2.10;;;;;19.30;100485.00;;;;2066062;28;20213;-53
2021/01/13 04:54:20;;;;;;;3.30;2.50;;;;;19.30;100478.00;;;;2063150;28;20217;-55
2021/01/13 04:55:22;;;;;;;4.97;2.83;;;;;19.30;100483.00;;;;2062627;28;20234;-55
2021/01/13 04:56:22;;;;;;;3.50;2.40;;;;;19.30;100471.00;;;;2062715;28;20223;-53
2021/01/13 04:57:56;;;;;;;4.10;2.60;;;;;19.30;100482.00;;;;2054342;28;20219;-53
2021/01/13 04:59:20;;;;;;;4.32;2.75;;;;;19.30;100482.00;;;;2062687;28;20256;-53
2021/01/13 05:00:44;;;;;;;5.68;2.55;;;;;19.30;100472.00;;;;2062608;28;20213;-53
2021/01/13 05:02:09;;;;;;;3.33;2.33;;;;;19.30;100476.00;;;;2062118;28;20276;-55
2021/01/13 05:03:28;;;;;;;3.88;2.30;;;;;19.30;100466.00;;;;2063106;28;20219;-53
2021/01/13 05:04:46;;;;;;;5.03;2.97;;;;;19.30;100476.00;;;;2062666;28;20227;-52
2021/01/13 05:05:49;;;;;;;3.55;2.45;;;;;19.30;100469.00;;;;2062928;28;20223;-53
2021/01/13 05:07:10;;;;;;;4.75;2.85;;;;;19.30;100476.00;;;;2062717;28;20679;-53
2021/01/13 05:08:22;;;;;;;3.28;2.45;;;;;19.30;100476.00;;;;2056869;28;20242;-53
2021/01/13 05:09:23;;;;;;;3.70;2.50;;;;;19.30;100476.00;;;;2062580;28;20220;-53
2021/01/13 05:10:23;;;;;;;4.27;2.57;;;;;19.30;100471.00;;;;2062512;28;20217;-53
2021/01/13 05:11:23;;;;;;;3.80;2.77;;;;;19.30;100472.00;;;;2054547;28;20221;-53
2021/01/13 05:12:32;;;;;;;3.07;2.30;;;;;19.30;100466.00;;;;2059660;28;20217;-53
2021/01/13 05:13:33;;;;;;;4.68;2.90;;;;;19.30;100467.00;;;;2069539;28;20222;-53
2021/01/13 05:14:33;;;;;;;3.73;2.70;;;;;19.30;100470.00;;;;2062055;28;20913;-53
2021/01/13 05:15:34;;;;;;;3.57;2.50;;;;;19.30;100467.00;;;;2054033;28;20218;-53
2021/01/13 05:16:40;;;;;;;4.13;2.50;;;;;19.30;100463.00;;;;2054260;28;20209;-53